Hlavní strana
METAR-TAF:

METAR-TAF

Letiště :

Rovaniemi, Finsko

zeměpisná šířka: 66-34N, zeměpisná délka: 025-50E, výška: 197 m

Aktuální stav počasí

Zpráva byla vytvořena před 22 minutami, v 04:50 UTC
Západní vítr 4 kt, proměnlivý mezi jihozápadním a západoseverozápadním
Teplota -11°C
Vlhkost vzduchu 72%
Tlak 1015 hPa
Viditelnost 10 km a více
Žádná oblačnost pod 1500 m, nevyskytují se cumulonimby.

METAR: EFRO 050450Z AUTO 26004KT 230V300 CAVOK M11/M15 Q1015

Čas: 08:12 (05:12 UTC)

Předpověď počasí

Zpráva byla vytvořena před 2 hodinami a 50 minutami, v 02:22 UTC
Předpověď platná od 05 v 03 UTC do 06 v 03 UTC
Severozápadní vítr 8 kt
Viditelnost 10 km a více
Žádná oblačnost pod 1500 m, nevyskytují se cumulonimby.

TAF: EFRO 050222Z 0503/0603 31008KT CAVOK

Stav a předpovědi počasí z více než 4 000 letišť (zprávy METAR a TAF).

Červené a žluté tečky na mapě představují dostupné meteorologické stanice.

Když kurzor umístíte na tečku, zobrazí se název stanice.

Pak kliknutím zobrazíte stav a předpověď počasí.

Chcete-li změnit mapu, kliknutím na zelené tlačítko se znaménkem +mapu přiblížíte, kliknutím na zelené tlačítko se znaménkem – mapu oddálíte a kliknutím na zelené šipky přejdete na sousední mapy.


METAR-TAF: